Time;durP1;ratioP1;P1;durP2;ratioP2;P2;SDS_P1;SDS_P2;PMS_P1;PMS_P2;Temp;Humidity;BMP_temperature;BMP_pressure;BME280_temperature;BME280_humidity;BME280_pressure;Samples;Min_cycle;Max_cycle;Signal;HPM_P1;HPM_P2
2021/08/05 07:24:45;;;;;;;0.20;0.10;;;19.30;99.90;;;;;;6220489;22;1306053;-75
2021/08/05 07:27:11;;;;;;;0.73;0.20;;;22.30;98.20;;;;;;6273557;22;20007;-75
2021/08/05 07:29:37;;;;;;;1.20;0.30;;;23.50;97.20;;;;;;6274368;22;20435;-75
2021/08/05 07:32:04;;;;;;;1.55;0.20;;;25.00;95.20;;;;;;6273031;22;20950;-75
2021/08/05 07:34:31;;;;;;;0.98;0.10;;;24.70;94.20;;;;;;6273781;22;20061;-75
2021/08/05 07:36:57;;;;;;;1.55;0.20;;;26.00;94.00;;;;;;6274382;22;20008;-75
2021/08/05 07:39:23;;;;;;;1.08;0.20;;;25.40;93.80;;;;;;6273962;22;20672;-75
2021/08/05 07:41:49;;;;;;;0.77;0.17;;;25.00;93.70;;;;;;6273873;22;19999;-75
2021/08/05 07:44:15;;;;;;;0.60;0.30;;;25.50;93.10;;;;;;6245654;22;20026;-75
2021/08/05 07:46:42;;;;;;;1.05;0.30;;;26.40;93.00;;;;;;6274473;22;19999;-75
2021/08/05 07:49:08;;;;;;;0.52;0.20;;;27.20;92.90;;;;;;6273497;22;20007;-75
2021/08/05 07:51:34;;;;;;;0.70;0.20;;;26.60;92.50;;;;;;6274266;22;20094;-75
2021/08/05 07:54:00;;;;;;;1.98;0.30;;;25.80;93.10;;;;;;6273725;22;20007;-75
2021/08/05 07:56:25;;;;;;;1.30;0.25;;;25.40;93.20;;;;;;6273603;22;20054;-76
2021/08/05 07:58:51;;;;;;;0.68;0.30;;;24.30;93.40;;;;;;6273572;22;20000;-75
2021/08/05 08:01:17;;;;;;;1.67;0.30;;;22.30;96.30;;;;;;6273461;22;20056;-75
2021/08/05 08:03:43;;;;;;;0.52;0.20;;;20.90;97.70;;;;;;6273156;22;20050;-75
2021/08/05 08:06:09;;;;;;;0.03;0.00;;;20.20;99.90;;;;;;6273658;22;20546;-75
2021/08/05 08:08:35;;;;;;;0.32;0.03;;;20.00;99.90;;;;;;6273949;22;20003;-76
2021/08/05 08:11:00;;;;;;;1.13;0.20;;;19.80;99.90;;;;;;6273600;22;20412;-75
2021/08/05 08:13:27;;;;;;;0.93;0.30;;;19.40;99.90;;;;;;6270347;22;20416;-75
2021/08/05 08:15:54;;;;;;;1.08;0.10;;;19.50;99.90;;;;;;6272206;22;20321;-75
2021/08/05 08:18:20;;;;;;;5.00;1.10;;;19.60;99.80;;;;;;6272819;22;20023;-75
2021/08/05 08:20:46;;;;;;;0.75;0.28;;;20.00;99.80;;;;;;6273247;22;20003;-75
2021/08/05 08:23:13;;;;;;;1.48;0.30;;;22.10;97.60;;;;;;6284077;22;20645;-75
2021/08/05 08:25:39;;;;;;;0.95;0.30;;;23.50;96.10;;;;;;6297710;22;20003;-75
2021/08/05 08:28:06;;;;;;;0.85;0.20;;;24.10;94.60;;;;;;6297532;22;20003;-75
2021/08/05 08:30:31;;;;;;;0.50;0.15;;;23.40;96.10;;;;;;6295449;22;20000;-75
2021/08/05 08:32:57;;;;;;;0.88;0.13;;;24.30;94.70;;;;;;6268835;22;20003;-76
2021/08/05 08:35:23;;;;;;;2.95;0.40;;;24.80;92.90;;;;;;6301484;22;20739;-78
2021/08/05 08:37:49;;;;;;;1.88;0.20;;;24.80;94.60;;;;;;6297013;22;20017;-76
2021/08/05 08:40:15;;;;;;;0.22;0.13;;;24.60;94.20;;;;;;6297746;22;20045;-75
2021/08/05 08:42:42;;;;;;;0.63;0.10;;;23.20;94.80;;;;;;6296677;22;20012;-75
2021/08/05 08:45:10;;;;;;;0.03;0.03;;;22.90;95.00;;;;;;6297306;22;20082;-74
2021/08/05 08:47:36;;;;;;;0.20;0.10;;;22.10;97.10;;;;;;6296649;22;20014;-74
2021/08/05 08:50:02;;;;;;;1.35;0.20;;;21.60;98.70;;;;;;6297164;22;19999;-74
2021/08/05 08:52:30;;;;;;;1.65;0.30;;;21.70;98.20;;;;;;6296948;22;20003;-75
2021/08/05 08:54:57;;;;;;;0.20;0.00;;;21.80;99.10;;;;;;6297167;22;20000;-74
2021/08/05 08:57:29;;;;;;;0.60;0.10;;;21.30;97.30;;;;;;6297232;22;20014;-75
2021/08/05 08:59:56;;;;;;;0.90;0.20;;;21.30;97.70;;;;;;6297191;22;20004;-74
2021/08/05 09:02:22;;;;;;;0.73;0.10;;;21.40;97.40;;;;;;6296853;22;20065;-75
2021/08/05 09:04:48;;;;;;;0.68;0.30;;;21.30;97.90;;;;;;6295981;22;20380;-75
2021/08/05 09:07:14;;;;;;;3.30;0.35;;;21.40;98.50;;;;;;6297096;22;20013;-75
2021/08/05 09:09:40;;;;;;;0.73;0.50;;;21.40;99.40;;;;;;6297836;22;20082;-75
2021/08/05 09:12:13;;;;;;;4.72;0.40;;;21.70;99.20;;;;;;6296944;22;20596;-75
2021/08/05 09:14:52;;;;;;;2.40;0.70;;;21.70;97.90;;;;;;6296690;22;20007;-75
2021/08/05 09:17:25;;;;;;;0.50;0.13;;;21.60;98.30;;;;;;6296699;22;20432;-75
2021/08/05 09:19:52;;;;;;;0.55;0.03;;;21.80;98.30;;;;;;6297120;22;20006;-74
2021/08/05 09:22:33;;;;;;;0.52;0.20;;;21.90;97.10;;;;;;6269110;22;20341;-74
2021/08/05 09:25:14;;;;;;;1.95;0.20;;;22.20;97.40;;;;;;6295680;22;20599;-74
2021/08/05 09:27:40;;;;;;;1.35;0.30;;;22.60;97.60;;;;;;6296825;22;20010;-75
2021/08/05 09:30:07;;;;;;;0.40;0.10;;;22.60;96.90;;;;;;6297206;22;20003;-75
2021/08/05 09:32:33;;;;;;;1.98;0.50;;;22.50;99.20;;;;;;6296445;22;20014;-75
2021/08/05 09:35:09;;;;;;;1.58;0.45;;;22.30;98.60;;;;;;6296639;22;20156;-74
2021/08/05 09:37:40;;;;;;;1.17;0.20;;;22.20;96.20;;;;;;6296175;22;20006;-74
2021/08/05 09:40:14;;;;;;;0.68;0.30;;;22.40;96.50;;;;;;6296944;22;20011;-75
2021/08/05 09:42:40;;;;;;;0.75;0.30;;;22.80;95.80;;;;;;6296703;22;20011;-74
2021/08/05 09:45:07;;;;;;;2.40;0.30;;;22.90;96.10;;;;;;6296478;22;20567;-74
2021/08/05 09:47:42;;;;;;;7.65;0.50;;;22.80;97.30;;;;;;6296532;22;20003;-74
2021/08/05 09:50:09;;;;;;;1.63;0.40;;;23.10;98.00;;;;;;6296033;22;20030;-74
2021/08/05 09:52:35;;;;;;;0.55;0.10;;;23.10;97.20;;;;;;6296536;22;20010;-74
2021/08/05 09:55:06;;;;;;;0.52;0.20;;;23.00;96.50;;;;;;6295976;22;20848;-74
2021/08/05 09:57:35;;;;;;;2.65;0.20;;;23.10;97.50;;;;;;6296539;22;20074;-75
2021/08/05 10:00:13;;;;;;;1.92;0.40;;;23.30;97.50;;;;;;6296124;22;20006;-75
2021/08/05 10:02:41;;;;;;;1.30;0.35;;;23.50;96.50;;;;;;6296494;22;20045;-75
2021/08/05 10:05:12;;;;;;;1.25;0.30;;;23.70;97.10;;;;;;6296229;22;20004;-75
2021/08/05 10:07:46;;;;;;;1.05;0.10;;;23.90;96.60;;;;;;6296405;22;19999;-75
2021/08/05 10:10:13;;;;;;;0.45;0.13;;;23.80;96.00;;;;;;6296741;22;20116;-74
2021/08/05 10:12:39;;;;;;;0.28;0.20;;;23.30;94.40;;;;;;6294706;22;20096;-74
2021/08/05 10:15:14;;;;;;;0.38;0.15;;;23.70;95.10;;;;;;6296463;22;20007;-74
2021/08/05 10:17:41;;;;;;;0.10;0.10;;;24.20;95.40;;;;;;6294280;22;20017;-75
2021/08/05 10:20:13;;;;;;;1.48;0.38;;;24.40;96.10;;;;;;6296559;22;20030;-74
2021/08/05 10:22:42;;;;;;;2.42;0.40;;;24.60;94.30;;;;;;6266953;22;20016;-75
2021/08/05 10:25:10;;;;;;;1.85;0.22;;;23.90;93.30;;;;;;6296438;22;20413;-75
2021/08/05 10:27:37;;;;;;;1.23;0.20;;;23.90;93.70;;;;;;6295138;22;20007;-74
2021/08/05 10:30:06;;;;;;;1.75;0.30;;;24.10;93.90;;;;;;6296301;22;20072;-74
2021/08/05 10:32:33;;;;;;;2.10;0.20;;;24.00;93.70;;;;;;6267509;22;20042;-74
2021/08/05 10:34:59;;;;;;;1.23;0.35;;;23.90;93.70;;;;;;6295615;22;20007;-74
2021/08/05 10:37:26;;;;;;;0.40;0.20;;;23.90;94.00;;;;;;6295207;22;20003;-75
2021/08/05 10:39:52;;;;;;;0.55;0.05;;;24.00;95.70;;;;;;6295708;22;20006;-74
2021/08/05 10:42:19;;;;;;;1.08;0.20;;;23.90;93.20;;;;;;6295555;22;20015;-74
2021/08/05 10:44:47;;;;;;;0.95;0.30;;;24.00;94.90;;;;;;6295172;22;20601;-75
2021/08/05 10:47:41;;;;;;;0.20;0.15;;;24.00;94.10;;;;;;6293697;22;20003;-74
2021/08/05 10:50:16;;;;;;;2.35;0.30;;;24.00;95.20;;;;;;6288785;22;20014;-74
2021/08/05 10:52:44;;;;;;;1.65;0.13;;;24.20;93.70;;;;;;6295222;22;20003;-74
2021/08/05 10:55:16;;;;;;;0.20;0.10;;;23.90;92.90;;;;;;6293010;22;19999;-74
2021/08/05 10:57:46;;;;;;;1.35;0.32;;;24.00;93.30;;;;;;6295668;22;20003;-75
2021/08/05 11:00:14;;;;;;;0.00;0.00;;;24.20;93.90;;;;;;6292074;22;20007;-74
2021/08/05 11:02:49;;;;;;;0.20;0.10;;;24.30;92.90;;;;;;6294681;22;20441;-74
2021/08/05 11:05:24;;;;;;;3.28;0.50;;;24.40;94.30;;;;;;6294572;22;20014;-74
2021/08/05 11:07:51;;;;;;;0.52;0.10;;;24.30;94.40;;;;;;6294546;22;20003;-74
2021/08/05 11:10:26;;;;;;;1.50;0.15;;;24.50;93.10;;;;;;6295713;22;20007;-74
2021/08/05 11:13:16;;;;;;;0.80;0.43;;;24.80;95.20;;;;;;6295679;22;20007;-75
2021/08/05 11:15:41;;;;;;;1.10;0.17;;;24.80;93.30;;;;;;6293129;22;20007;-74
2021/08/05 11:18:07;;;;;;;1.30;0.30;;;24.80;94.70;;;;;;6295501;22;20000;-74
2021/08/05 11:20:38;;;;;;;3.28;0.40;;;24.90;94.70;;;;;;6295289;22;20023;-74
2021/08/05 11:23:05;;;;;;;0.70;0.30;;;25.10;95.50;;;;;;6293809;22;20042;-75
2021/08/05 11:25:55;;;;;;;0.30;0.10;;;24.90;94.50;;;;;;6294133;22;19995;-75
2021/08/05 11:28:23;;;;;;;0.93;0.15;;;24.50;94.70;;;;;;6295284;22;20033;-75
2021/08/05 11:31:03;;;;;;;0.95;0.10;;;24.40;94.80;;;;;;6295766;22;20033;-74
2021/08/05 11:33:38;;;;;;;0.50;0.13;;;24.30;94.10;;;;;;6295648;22;19999;-74
2021/08/05 11:36:35;;;;;;;0.93;0.32;;;24.50;95.00;;;;;;6292731;22;20014;-74
2021/08/05 11:39:10;;;;;;;0.65;0.10;;;24.60;95.80;;;;;;6295235;22;20007;-75
2021/08/05 11:41:45;;;;;;;1.00;0.32;;;24.80;93.90;;;;;;6267887;22;20003;-74
2021/08/05 11:44:33;;;;;;;2.42;0.88;;;25.00;96.50;;;;;;6295346;22;20014;-74
2021/08/05 11:47:43;;;;;;;1.17;0.40;;;25.00;95.40;;;;;;6294163;22;20007;-74
2021/08/05 11:50:16;;;;;;;4.82;0.70;;;25.30;96.30;;;;;;6288594;22;20007;-75
2021/08/05 11:52:50;;;;;;;1.13;0.30;;;25.40;95.80;;;;;;6295447;22;20009;-74
2021/08/05 11:55:23;;;;;;;;;;;25.20;95.00;;;;;;6296485;22;20364;-75
2021/08/05 11:57:53;;;;;;;2.63;0.17;;;25.20;94.30;;;;;;6296096;22;19899;-74
2021/08/05 12:00:21;;;;;;;0.52;0.10;;;25.50;93.60;;;;;;6297103;22;20438;-75
2021/08/05 12:02:48;;;;;;;0.63;0.25;;;25.40;95.20;;;;;;6294051;22;20042;-74
2021/08/05 12:05:16;;;;;;;2.17;0.32;;;25.30;93.70;;;;;;6296889;22;20003;-74
2021/08/05 12:07:49;;;;;;;0.85;0.28;;;25.50;94.50;;;;;;6269907;22;20479;-75
2021/08/05 12:10:23;;;;;;;;;;;25.80;94.20;;;;;;6270609;22;20007;-74
2021/08/05 12:12:55;;;;;;;0.17;0.10;;;25.70;94.00;;;;;;6295981;22;19903;-74
2021/08/05 12:15:33;;;;;;;0.65;0.32;;;25.60;94.30;;;;;;6294397;22;20003;-74
2021/08/05 12:18:05;;;;;;;1.55;0.40;;;25.70;94.60;;;;;;6292868;22;20096;-74
2021/08/05 12:20:37;;;;;;;0.45;0.10;;;25.70;92.80;;;;;;6293195;22;20007;-75
2021/08/05 12:23:11;;;;;;;0.55;0.20;;;25.50;91.60;;;;;;6293054;22;20513;-75
2021/08/05 12:25:40;;;;;;;;;;;25.50;91.70;;;;;;6298316;22;20007;-75
2021/08/05 12:28:12;;;;;;;0.20;0.10;;;25.60;92.60;;;;;;6297582;22;19996;-75
2021/08/05 12:30:45;;;;;;;2.30;0.10;;;25.70;92.30;;;;;;6296388;22;20003;-74
2021/08/05 12:33:14;;;;;;;0.77;0.15;;;25.30;92.40;;;;;;6296427;22;20798;-75
2021/08/05 12:35:41;;;;;;;1.55;0.20;;;25.60;93.60;;;;;;6271832;22;20030;-74
2021/08/05 12:38:11;;;;;;;1.92;0.20;;;25.90;93.00;;;;;;6302431;22;20437;-74
2021/08/05 12:40:44;;;;;;;2.42;0.17;;;26.10;92.40;;;;;;6297085;22;20003;-74
2021/08/05 12:43:11;;;;;;;3.33;0.38;;;26.30;93.60;;;;;;6296234;22;20043;-74
2021/08/05 12:45:40;;;;;;;0.47;0.13;;;26.50;92.40;;;;;;6297306;22;20003;-74
2021/08/05 12:48:07;;;;;;;0.80;0.30;;;26.70;92.10;;;;;;6297558;22;20018;-74
2021/08/05 12:50:46;;;;;;;0.93;0.20;;;26.60;91.90;;;;;;6297471;22;20053;-74
2021/08/05 12:53:30;;;;;;;0.47;0.25;;;26.70;92.00;;;;;;6297035;22;20485;-73
2021/08/05 12:55:57;;;;;;;0.25;0.10;;;26.50;92.00;;;;;;6297467;22;20359;-74
2021/08/05 12:58:25;;;;;;;2.15;0.32;;;26.60;92.80;;;;;;6296663;22;20046;-74
2021/08/05 13:00:52;;;;;;;1.08;0.20;;;26.70;92.00;;;;;;6297251;22;20034;-73
2021/08/05 13:03:36;;;;;;;0.25;0.20;;;26.50;91.70;;;;;;6297247;22;20470;-74
2021/08/05 13:06:02;;;;;;;1.30;0.25;;;26.50;92.20;;;;;;6296598;22;20019;-74
2021/08/05 13:08:42;;;;;;;0.90;0.13;;;26.70;93.00;;;;;;6296570;22;20011;-74
2021/08/05 13:11:14;;;;;;;0.60;0.25;;;26.60;91.50;;;;;;6296872;22;20319;-74
2021/08/05 13:13:48;;;;;;;1.27;0.30;;;26.50;91.90;;;;;;6296895;22;20033;-73
2021/08/05 13:16:18;;;;;;;1.90;0.20;;;26.50;91.50;;;;;;6296559;22;20030;-74
2021/08/05 13:19:08;;;;;;;2.20;0.38;;;26.20;91.10;;;;;;6296808;22;20011;-74
2021/08/05 13:21:52;;;;;;;2.97;0.50;;;26.60;92.50;;;;;;6296519;22;20021;-73
2021/08/05 13:24:31;;;;;;;0.30;0.15;;;27.00;92.90;;;;;;6296500;22;20365;-73
2021/08/05 13:27:23;;;;;;;0.55;0.20;;;27.30;92.50;;;;;;6296657;22;20491;-74
2021/08/05 13:29:51;;;;;;;1.60;0.40;;;27.30;91.50;;;;;;6290391;22;20036;-73
2021/08/05 13:32:22;;;;;;;0.40;0.10;;;27.50;93.20;;;;;;6296680;22;19999;-73
2021/08/05 13:35:03;;;;;;;2.08;0.43;;;27.50;92.40;;;;;;6295977;22;20120;-73
2021/08/05 13:37:31;;;;;;;3.75;0.55;;;27.50;92.00;;;;;;6268961;22;20007;-73
2021/08/05 13:40:00;;;;;;;1.25;0.38;;;27.50;92.50;;;;;;6296340;22;20006;-74
2021/08/05 13:42:27;;;;;;;3.97;0.82;;;27.80;92.80;;;;;;6296297;22;19999;-73
2021/08/05 13:44:55;;;;;;;0.63;0.20;;;27.40;90.50;;;;;;6296694;22;20015;-73
2021/08/05 13:47:21;;;;;;;0.52;0.30;;;27.50;92.60;;;;;;6296266;22;19999;-74
2021/08/05 13:49:47;;;;;;;1.85;0.17;;;27.60;93.20;;;;;;6296438;22;20000;-74
2021/08/05 13:52:15;;;;;;;2.63;0.20;;;27.80;92.40;;;;;;6296124;22;20003;-74
2021/08/05 13:54:41;;;;;;;0.70;0.30;;;27.80;91.60;;;;;;6296477;22;20045;-74
2021/08/05 13:57:07;;;;;;;0.38;0.15;;;27.70;92.40;;;;;;6295311;22;20007;-74
2021/08/05 13:59:33;;;;;;;0.68;0.28;;;27.70;92.60;;;;;;6296255;22;20333;-74
2021/08/05 14:02:00;;;;;;;0.50;0.20;;;27.50;92.40;;;;;;6296839;22;20042;-75
2021/08/05 14:04:29;;;;;;;0.40;0.15;;;27.50;91.80;;;;;;6296397;22;20017;-74
2021/08/05 14:06:56;;;;;;;0.40;0.20;;;27.50;93.20;;;;;;6294634;22;20530;-75
2021/08/05 14:09:22;;;;;;;0.70;0.20;;;27.60;92.50;;;;;;6292463;22;20049;-74
2021/08/05 14:11:48;;;;;;;0.50;0.15;;;27.60;91.50;;;;;;6263234;22;20380;-74
2021/08/05 14:14:14;;;;;;;0.90;0.20;;;27.50;92.60;;;;;;6290966;22;20000;-74
2021/08/05 14:16:44;;;;;;;1.13;0.40;;;27.30;92.10;;;;;;6291605;22;20036;-74
2021/08/05 14:19:15;;;;;;;1.30;0.20;;;27.50;91.40;;;;;;6296432;22;20029;-74
2021/08/05 14:21:45;;;;;;;0.35;0.17;;;27.30;90.70;;;;;;6295302;22;20574;-74
2021/08/05 14:24:14;;;;;;;1.42;0.20;;;27.70;91.40;;;;;;6296156;22;20019;-74
2021/08/05 14:26:40;;;;;;;1.58;0.32;;;27.70;90.30;;;;;;6294970;22;20064;-74
2021/08/05 14:29:06;;;;;;;0.52;0.10;;;27.70;88.90;;;;;;6296300;22;19999;-74
2021/08/05 14:31:33;;;;;;;0.28;0.15;;;27.70;90.60;;;;;;6295232;22;19996;-74
2021/08/05 14:33:59;;;;;;;0.38;0.22;;;28.00;90.90;;;;;;6296108;22;20003;-74
2021/08/05 14:36:26;;;;;;;0.82;0.17;;;28.20;91.70;;;;;;6295473;22;20003;-74
2021/08/05 14:38:52;;;;;;;0.30;0.30;;;28.30;90.30;;;;;;6296269;22;20031;-74
2021/08/05 14:41:18;;;;;;;0.98;0.20;;;28.20;88.10;;;;;;6296359;22;20003;-74
2021/08/05 14:43:44;;;;;;;0.93;0.25;;;28.10;88.80;;;;;;6295400;22;20064;-75
2021/08/05 14:46:09;;;;;;;0.77;0.40;;;28.40;90.00;;;;;;6296330;22;20011;-74
2021/08/05 14:48:35;;;;;;;1.35;0.32;;;28.40;90.60;;;;;;6296114;22;20052;-74
2021/08/05 14:51:02;;;;;;;0.40;0.20;;;28.60;90.00;;;;;;6295966;22;20006;-74
2021/08/05 14:53:28;;;;;;;0.98;0.43;;;28.10;86.60;;;;;;6295064;22;19999;-74
2021/08/05 14:55:54;;;;;;;1.58;0.20;;;28.10;87.30;;;;;;6295705;22;20014;-74
2021/08/05 14:58:20;;;;;;;1.83;0.35;;;28.20;88.00;;;;;;6268663;22;20012;-74
2021/08/05 15:00:45;;;;;;;0.82;0.20;;;27.60;86.50;;;;;;6295785;22;20421;-74
2021/08/05 15:03:11;;;;;;;0.43;0.20;;;27.40;88.30;;;;;;6295150;22;20072;-74
2021/08/05 15:05:37;;;;;;;0.68;0.30;;;27.00;86.60;;;;;;6295406;22;20056;-74
2021/08/05 15:08:03;;;;;;;0.63;0.17;;;26.60;88.50;;;;;;6295146;22;20013;-75
2021/08/05 15:10:29;;;;;;;1.65;0.22;;;26.30;88.90;;;;;;6295587;22;20434;-74
2021/08/05 15:12:55;;;;;;;0.77;0.22;;;26.10;88.70;;;;;;6295110;22;20003;-74
2021/08/05 15:15:21;;;;;;;1.00;0.30;;;26.00;90.20;;;;;;6295946;22;20032;-74
2021/08/05 15:17:47;;;;;;;0.95;0.20;;;26.00;91.40;;;;;;6294680;22;20070;-74
2021/08/05 15:20:14;;;;;;;0.28;0.20;;;26.10;91.90;;;;;;6295314;22;20365;-74
2021/08/05 15:22:40;;;;;;;0.63;0.10;;;26.10;92.10;;;;;;6295370;22;20015;-74
2021/08/05 15:25:06;;;;;;;1.10;0.40;;;25.90;92.60;;;;;;6295331;22;20087;-74
2021/08/05 15:27:32;;;;;;;0.65;0.20;;;25.60;93.30;;;;;;6295596;22;20026;-74
2021/08/05 15:29:57;;;;;;;0.63;0.25;;;25.40;93.40;;;;;;6294001;22;20003;-74
2021/08/05 15:32:23;;;;;;;1.20;0.20;;;25.20;92.80;;;;;;6294422;22;20428;-74
2021/08/05 15:34:49;;;;;;;1.33;0.60;;;24.90;92.30;;;;;;6269358;22;20007;-74
2021/08/05 15:37:14;;;;;;;1.45;0.38;;;24.60;93.80;;;;;;6297754;22;20445;-74
2021/08/05 15:39:40;;;;;;;1.20;0.50;;;24.30;94.00;;;;;;6296654;22;20006;-74
2021/08/05 15:42:06;;;;;;;0.60;0.30;;;24.30;93.90;;;;;;6297687;22;20070;-74
2021/08/05 15:44:31;;;;;;;2.67;0.50;;;24.10;94.70;;;;;;6297156;22;20018;-74
2021/08/05 15:46:57;;;;;;;0.95;0.22;;;24.00;94.40;;;;;;6297253;22;20061;-74
2021/08/05 15:49:23;;;;;;;1.45;0.30;;;24.10;93.90;;;;;;6296064;22;20007;-74
2021/08/05 15:51:49;;;;;;;2.50;0.60;;;24.10;94.20;;;;;;6297846;22;20003;-74
2021/08/05 15:54:16;;;;;;;3.95;0.50;;;24.00;94.80;;;;;;6297850;22;19995;-74
2021/08/05 15:56:42;;;;;;;1.20;0.22;;;23.80;95.50;;;;;;6297242;22;20060;-74
2021/08/05 15:59:11;;;;;;;3.35;0.30;;;23.60;96.50;;;;;;6296789;22;20007;-74
2021/08/05 16:01:40;;;;;;;3.28;0.20;;;23.40;97.10;;;;;;6297666;22;20457;-74
2021/08/05 16:04:06;;;;;;;0.17;0.15;;;23.10;97.20;;;;;;6297264;22;20011;-74
2021/08/05 16:06:37;;;;;;;3.03;0.40;;;23.10;96.90;;;;;;6296677;22;20350;-74
2021/08/05 16:09:04;;;;;;;1.58;0.43;;;23.00;97.00;;;;;;6297070;22;20018;-74
2021/08/05 16:11:30;;;;;;;2.72;0.60;;;22.90;98.10;;;;;;6297167;22;19999;-74
2021/08/05 16:13:55;;;;;;;1.98;0.40;;;23.10;97.80;;;;;;6297468;22;20010;-74
2021/08/05 16:16:21;;;;;;;1.25;0.60;;;23.40;96.60;;;;;;6294041;22;20006;-74
2021/08/05 16:18:47;;;;;;;1.42;0.43;;;23.60;96.00;;;;;;6296441;22;19999;-74
2021/08/05 16:21:12;;;;;;;0.32;0.20;;;23.70;96.30;;;;;;6296406;22;20003;-74
2021/08/05 16:23:38;;;;;;;2.58;0.40;;;23.50;97.00;;;;;;6268754;22;20019;-74
2021/08/05 16:26:04;;;;;;;2.42;0.40;;;23.50;97.10;;;;;;6296556;22;20007;-74
2021/08/05 16:28:30;;;;;;;3.03;0.30;;;23.40;97.40;;;;;;6297887;22;19996;-74
2021/08/05 16:30:57;;;;;;;1.42;0.35;;;23.30;97.20;;;;;;6297311;22;20017;-74
2021/08/05 16:33:23;;;;;;;0.88;0.32;;;23.30;97.50;;;;;;6298252;22;20007;-74
2021/08/05 16:35:49;;;;;;;1.55;0.40;;;23.10;97.40;;;;;;6293251;22;20078;-74
2021/08/05 16:38:14;;;;;;;1.05;0.43;;;23.10;97.20;;;;;;6296549;22;20374;-74
2021/08/05 16:40:41;;;;;;;3.00;0.63;;;22.80;98.30;;;;;;6298203;22;20007;-74
2021/08/05 16:43:07;;;;;;;1.05;0.52;;;22.70;98.70;;;;;;6297042;22;20007;-74
2021/08/05 16:45:33;;;;;;;1.65;0.30;;;22.60;98.50;;;;;;6295372;22;20033;-74
2021/08/05 16:47:59;;;;;;;0.60;0.30;;;22.40;99.20;;;;;;6294142;22;20082;-74
2021/08/05 16:50:25;;;;;;;2.97;0.50;;;22.00;99.90;;;;;;6295440;22;20030;-74
2021/08/05 16:52:51;;;;;;;1.98;0.60;;;22.20;98.70;;;;;;6297723;22;19996;-74
2021/08/05 16:55:18;;;;;;;1.48;0.47;;;22.70;98.10;;;;;;6298015;22;20026;-74
2021/08/05 16:57:43;;;;;;;1.23;0.60;;;23.20;97.10;;;;;;6297003;22;20006;-74
2021/08/05 17:00:10;;;;;;;0.88;0.35;;;23.60;96.70;;;;;;6297572;22;20003;-74
2021/08/05 17:02:35;;;;;;;1.75;0.55;;;23.70;96.50;;;;;;6297617;22;20018;-74
2021/08/05 17:05:01;;;;;;;2.10;0.38;;;23.80;96.30;;;;;;6294271;22;20007;-73
2021/08/05 17:07:27;;;;;;;1.17;0.43;;;23.80;96.80;;;;;;6292806;22;20102;-74
2021/08/05 17:09:53;;;;;;;1.52;0.40;;;23.50;97.50;;;;;;6295599;22;20007;-72
2021/08/05 17:12:18;;;;;;;0.93;0.30;;;23.20;98.70;;;;;;6296108;22;20522;-74
2021/08/05 17:14:45;;;;;;;5.15;0.70;;;22.90;98.40;;;;;;6293421;22;20007;-74
2021/08/05 17:17:11;;;;;;;3.70;0.80;;;23.10;98.50;;;;;;6297008;22;20482;-74
2021/08/05 17:19:39;;;;;;;4.82;0.90;;;23.10;98.90;;;;;;6297317;22;20003;-75
2021/08/05 17:22:06;;;;;;;2.90;0.70;;;22.90;99.30;;;;;;6297351;22;20088;-76
2021/08/05 17:24:33;;;;;;;2.75;1.20;;;22.70;99.10;;;;;;6296766;22;20338;-75
2021/08/05 17:26:59;;;;;;;1.15;0.50;;;22.60;99.00;;;;;;6297383;22;20014;-76
2021/08/05 17:29:25;;;;;;;1.13;0.50;;;22.50;99.00;;;;;;6297433;22;20007;-75
2021/08/05 17:31:51;;;;;;;3.22;0.82;;;22.50;99.10;;;;;;6297878;22;20015;-75
2021/08/05 17:34:16;;;;;;;3.97;0.98;;;22.30;99.30;;;;;;6297397;22;20003;-76
2021/08/05 17:36:42;;;;;;;9.32;6.65;;;22.20;99.90;;;;;;6296839;22;20034;-76
2021/08/05 17:39:08;;;;;;;3.33;1.05;;;21.90;99.90;;;;;;6297371;22;19999;-75
2021/08/05 17:41:35;;;;;;;4.07;0.75;;;21.90;99.90;;;;;;6297301;22;19999;-75
2021/08/05 17:44:01;;;;;;;2.05;0.75;;;21.80;99.90;;;;;;6297056;22;20337;-75
2021/08/05 17:46:26;;;;;;;1.65;0.95;;;21.80;99.90;;;;;;6297402;22;20008;-75
2021/08/05 17:48:52;;;;;;;2.33;0.95;;;21.80;99.70;;;;;;6297828;22;20422;-75
2021/08/05 17:51:18;;;;;;;2.53;0.63;;;21.80;99.30;;;;;;6297266;22;20006;-76
2021/08/05 17:53:44;;;;;;;1.95;0.40;;;21.90;98.40;;;;;;6297761;22;20072;-75
2021/08/05 17:56:10;;;;;;;1.60;0.57;;;22.10;98.20;;;;;;6297371;22;20006;-75
2021/08/05 17:58:35;;;;;;;3.13;0.65;;;21.90;98.00;;;;;;6297001;22;20031;-75
2021/08/05 18:01:01;;;;;;;3.25;0.73;;;21.80;99.10;;;;;;6269849;22;20329;-75
2021/08/05 18:03:27;;;;;;;2.28;0.77;;;21.70;98.90;;;;;;6297173;22;20007;-75
2021/08/05 18:05:53;;;;;;;1.35;0.20;;;21.60;98.90;;;;;;6296836;22;20007;-75
2021/08/05 18:08:20;;;;;;;2.75;0.47;;;21.70;98.70;;;;;;6297304;22;19999;-75
2021/08/05 18:10:47;;;;;;;1.60;0.35;;;21.70;98.90;;;;;;6297132;22;20030;-76
2021/08/05 18:13:13;;;;;;;2.55;0.50;;;21.70;98.30;;;;;;6297182;22;20628;-75
2021/08/05 18:15:39;;;;;;;0.73;0.40;;;21.60;99.10;;;;;;6295519;22;20007;-75
2021/08/05 18:18:04;;;;;;;5.35;1.40;;;21.80;98.60;;;;;;6296887;22;20026;-75
2021/08/05 18:20:30;;;;;;;1.23;0.40;;;21.80;99.10;;;;;;6296760;22;20350;-75
2021/08/05 18:22:56;;;;;;;3.55;0.50;;;21.40;99.50;;;;;;6296663;22;20019;-75
2021/08/05 18:25:22;;;;;;;1.35;0.50;;;21.20;99.90;;;;;;6296240;22;20025;-75
2021/08/05 18:27:48;;;;;;;0.95;0.40;;;21.20;99.60;;;;;;6295264;22;20417;-75
2021/08/05 18:30:13;;;;;;;6.90;2.72;;;21.20;99.30;;;;;;6295656;22;20102;-75
2021/08/05 18:32:39;;;;;;;2.22;0.50;;;20.70;99.90;;;;;;6297212;22;20027;-76
2021/08/05 18:35:05;;;;;;;1.05;0.38;;;20.90;99.40;;;;;;6297629;22;20031;-75
2021/08/05 18:37:31;;;;;;;2.35;0.57;;;21.10;98.40;;;;;;6296864;22;20000;-75
2021/08/05 18:39:57;;;;;;;0.95;0.50;;;21.10;98.50;;;;;;6297147;22;20092;-75
2021/08/05 18:42:23;;;;;;;2.10;0.68;;;21.20;98.40;;;;;;6297020;22;20007;-75
2021/08/05 18:44:49;;;;;;;1.73;0.60;;;21.10;98.10;;;;;;6297327;22;20007;-75
2021/08/05 18:47:15;;;;;;;6.75;0.70;;;21.00;98.40;;;;;;6296396;22;20500;-75
2021/08/05 18:49:40;;;;;;;1.55;0.68;;;21.10;98.50;;;;;;6296971;22;20014;-75
2021/08/05 18:52:10;;;;;;;1.52;0.63;;;21.40;97.80;;;;;;6296771;22;20003;-75
2021/08/05 18:54:36;;;;;;;2.00;0.77;;;21.50;97.70;;;;;;6297037;22;20002;-75
2021/08/05 18:57:02;;;;;;;1.90;0.40;;;21.50;98.30;;;;;;6295745;22;20449;-76
2021/08/05 18:59:28;;;;;;;1.73;0.60;;;21.30;99.00;;;;;;6296293;22;20423;-75
2021/08/05 19:01:54;;;;;;;1.70;0.30;;;20.80;99.50;;;;;;6296661;22;20025;-75
2021/08/05 19:04:19;;;;;;;1.88;0.45;;;20.70;99.90;;;;;;6296467;22;20539;-75
2021/08/05 19:06:45;;;;;;;1.58;0.45;;;20.70;99.80;;;;;;6296910;22;20003;-75
2021/08/05 19:09:11;;;;;;;3.08;0.40;;;20.70;99.90;;;;;;6296719;22;20011;-75
2021/08/05 19:11:36;;;;;;;1.63;0.38;;;20.70;99.90;;;;;;6296401;22;20439;-75
2021/08/05 19:14:02;;;;;;;2.40;0.70;;;20.60;99.90;;;;;;6268594;22;20015;-75
2021/08/05 19:16:28;;;;;;;0.98;0.60;;;20.60;99.90;;;;;;6296713;22;20074;-75
2021/08/05 19:18:54;;;;;;;1.05;0.45;;;20.80;99.90;;;;;;6297278;22;20003;-75
2021/08/05 19:21:19;;;;;;;1.08;0.40;;;20.80;99.90;;;;;;6269160;22;20007;-75
2021/08/05 19:23:46;;;;;;;2.13;0.60;;;20.70;99.90;;;;;;6294729;22;20065;-75
2021/08/05 19:26:13;;;;;;;1.52;0.60;;;20.60;99.90;;;;;;6296428;22;20017;-76
2021/08/05 19:28:39;;;;;;;1.08;0.40;;;20.60;99.90;;;;;;6295997;22;20028;-75
2021/08/05 19:31:06;;;;;;;2.80;0.60;;;20.40;99.90;;;;;;6296400;22;20836;-75
2021/08/05 19:33:32;;;;;;;3.72;0.70;;;20.30;99.90;;;;;;6296157;22;19999;-75
2021/08/05 19:35:58;;;;;;;4.65;0.90;;;20.20;99.90;;;;;;6296551;22;20011;-75
2021/08/05 19:38:23;;;;;;;1.95;0.75;;;20.10;99.90;;;;;;6269162;22;20015;-75
2021/08/05 19:40:49;;;;;;;0.80;0.38;;;20.40;99.90;;;;;;6296881;22;19999;-75
2021/08/05 19:43:15;;;;;;;1.92;0.82;;;20.50;99.90;;;;;;6295559;22;20017;-75
2021/08/05 19:45:40;;;;;;;3.65;0.70;;;20.40;99.90;;;;;;6269024;22;20082;-76
2021/08/05 19:48:07;;;;;;;2.55;0.60;;;20.50;99.90;;;;;;6296420;22;20003;-76
2021/08/05 19:50:33;;;;;;;1.50;0.80;;;20.30;99.90;;;;;;6296499;22;20049;-75
2021/08/05 19:52:59;;;;;;;1.55;0.65;;;20.20;99.90;;;;;;6296476;22;20007;-76
2021/08/05 19:55:25;;;;;;;1.58;0.70;;;20.10;99.90;;;;;;6295984;22;20060;-75
2021/08/05 19:57:50;;;;;;;4.40;1.20;;;20.00;99.90;;;;;;6296472;22;20136;-75
2021/08/05 20:00:16;;;;;;;5.75;0.80;;;19.90;99.90;;;;;;6296769;22;20692;-76
2021/08/05 20:02:42;;;;;;;4.85;0.85;;;19.80;99.90;;;;;;6296141;22;20011;-75
2021/08/05 20:05:09;;;;;;;3.30;0.70;;;19.90;99.90;;;;;;6295958;22;20413;-75
2021/08/05 20:07:35;;;;;;;3.35;0.65;;;19.90;99.90;;;;;;6296453;22;20004;-75
2021/08/05 20:10:00;;;;;;;3.75;1.27;;;19.80;99.90;;;;;;6296292;22;20422;-75
2021/08/05 20:12:26;;;;;;;3.60;1.48;;;19.80;99.90;;;;;;6296488;22;20006;-75
2021/08/05 20:14:52;;;;;;;3.58;1.08;;;19.70;99.90;;;;;;6295944;22;20014;-75
2021/08/05 20:17:18;;;;;;;3.35;1.02;;;19.70;99.90;;;;;;6267839;22;20088;-76